Time;durP1;ratioP1;P1;durP2;ratioP2;P2;SDS_P1;SDS_P2;PMS_P1;PMS_P2;Temp;Humidity;BMP_temperature;BMP_pressure;BME280_temperature;BME280_humidity;BME280_pressure;Samples;Min_cycle;Max_cycle;Signal;HPM_P1;HPM_P2
2021/08/29 00:00:30;;;;;;;3.50;2.40;;;;;;;11.45;77.37;98833.50;111084;1202;61792;-23
2021/08/29 00:03:00;;;;;;;4.10;1.60;;;;;;;11.21;78.64;98832.43;111323;1201;60799;-23
2021/08/29 00:05:29;;;;;;;3.40;1.70;;;;;;;11.67;78.31;98835.02;111299;1202;74269;-23
2021/08/29 00:07:59;;;;;;;2.30;2.10;;;;;;;12.24;76.00;98829.42;111145;1202;75529;-23
2021/08/29 00:10:28;;;;;;;3.00;2.30;;;;;;;12.28;75.53;98829.54;111296;1201;73172;-23
2021/08/29 00:12:56;;;;;;;2.80;2.00;;;;;;;12.09;75.75;98816.65;111286;1202;60848;-23
2021/08/29 00:15:25;;;;;;;3.60;1.80;;;;;;;11.72;76.67;98798.97;111318;1201;60906;-23
2021/08/29 00:17:55;;;;;;;3.30;2.40;;;;;;;11.42;75.85;98775.73;111301;1202;71919;-23
2021/08/29 00:20:24;;;;;;;4.20;1.90;;;;;;;11.06;79.79;98777.67;111294;1201;75341;-23
2021/08/29 00:22:53;;;;;;;2.60;2.00;;;;;;;11.36;80.20;98780.05;111280;1201;72365;-23
2021/08/29 00:25:22;;;;;;;3.30;2.50;;;;;;;11.95;77.74;98775.66;111269;1202;60926;-23
2021/08/29 00:27:51;;;;;;;4.90;2.80;;;;;;;12.02;77.33;98779.22;111193;1196;61015;-23
2021/08/29 00:30:20;;;;;;;2.20;1.70;;;;;;;11.88;76.86;98787.23;111174;1201;74975;-23
2021/08/29 00:32:49;;;;;;;3.90;2.40;;;;;;;11.69;76.11;98796.27;111190;1202;73967;-22
2021/08/29 00:35:18;;;;;;;4.40;2.50;;;;;;;11.46;76.92;98802.62;111157;1200;73007;-23
2021/08/29 00:37:47;;;;;;;4.20;1.50;;;;;;;11.32;77.72;98812.94;111147;1203;62434;-23
2021/08/29 00:40:20;;;;;;;2.50;1.80;;;;;;;11.79;77.01;98810.61;111180;1203;60942;-23
2021/08/29 00:42:49;;;;;;;5.30;2.10;;;;;;;12.35;75.79;98796.01;111202;1202;75489;-23
2021/08/29 00:45:20;;;;;;;1.90;1.60;;;;;;;12.38;75.50;98790.04;111216;1202;72926;-23
2021/08/29 00:47:49;;;;;;;6.90;1.90;;;;;;;12.14;75.14;98787.00;111116;1196;74158;-23
2021/08/29 00:50:19;;;;;;;3.70;2.30;;;;;;;11.83;75.70;98781.05;111133;1195;61025;-23
2021/08/29 00:52:49;;;;;;;4.60;2.50;;;;;;;11.56;76.15;98782.77;111153;1201;60886;-23
2021/08/29 00:55:21;;;;;;;3.30;1.40;;;;;;;11.32;76.98;98783.71;111175;1205;73852;-23
2021/08/29 00:57:53;;;;;;;6.00;2.20;;;;;;;11.78;77.03;98789.84;111150;1201;75438;-23
2021/08/29 01:00:25;;;;;;;3.60;2.30;;;;;;;12.35;75.84;98786.69;111179;1203;74100;-23
2021/08/29 01:02:58;;;;;;;7.70;3.10;;;;;;;12.41;75.31;98782.66;111166;1202;60878;-23
2021/08/29 01:05:28;;;;;;;4.20;2.20;;;;;;;12.22;75.63;98779.34;111181;1204;60986;-23
2021/08/29 01:08:18;;;;;;;6.30;3.00;;;;;;;11.92;75.97;98781.70;111154;1205;75196;-23
2021/08/29 01:10:57;;;;;;;3.50;1.90;;;;;;;11.68;77.14;98779.97;111148;1202;74938;-23
2021/08/29 01:13:48;;;;;;;5.30;2.30;;;;;;;12.10;77.04;98772.52;111110;1200;75552;-23
2021/08/29 01:16:33;;;;;;;5.90;3.20;;;;;;;12.47;75.73;98775.48;111137;1200;61023;-23
2021/08/29 01:19:15;;;;;;;6.30;2.60;;;;;;;12.42;75.24;98772.91;111036;1203;60846;-23
2021/08/29 01:21:49;;;;;;;7.80;3.20;;;;;;;12.16;75.35;98779.01;111187;1204;75007;-23
2021/08/29 01:24:20;;;;;;;6.20;2.70;;;;;;;11.91;75.84;98782.94;111095;1204;74194;-23
2021/08/29 01:27:15;;;;;;;2.70;1.70;;;;;;;11.66;76.74;98791.96;111089;1204;73923;-23
2021/08/29 01:29:44;;;;;;;5.60;2.50;;;;;;;12.12;76.46;98797.23;111110;1204;60976;-23
2021/08/29 01:32:13;;;;;;;3.70;2.60;;;;;;;12.57;74.99;98804.14;111145;1200;60886;-23
2021/08/29 01:34:48;;;;;;;4.20;2.00;;;;;;;12.53;74.30;98801.68;111184;1202;74288;-23
2021/08/29 01:37:23;;;;;;;6.90;2.10;;;;;;;12.29;74.70;98790.86;111176;1203;75669;-23
2021/08/29 01:40:01;;;;;;;3.60;2.70;;;;;;;11.96;75.52;98782.38;111085;1204;73214;-22
2021/08/29 01:42:32;;;;;;;7.10;2.70;;;;;;;11.64;76.08;98779.48;111068;1203;60861;-23
2021/08/29 01:45:05;;;;;;;4.10;2.10;;;;;;;11.40;76.74;98773.26;111161;1202;60851;-23
2021/08/29 01:47:34;;;;;;;3.50;2.40;;;;;;;11.82;77.42;98767.42;111046;1202;74800;-23
2021/08/29 01:50:04;;;;;;;8.00;4.30;;;;;;;12.37;75.36;98764.73;111181;1204;75574;-23
2021/08/29 01:52:33;;;;;;;7.00;3.90;;;;;;;12.38;75.07;98764.05;111024;1201;70793;-23
2021/08/29 01:55:21;;;;;;;6.30;3.60;;;;;;;12.14;75.79;98760.58;111155;1202;60869;-23
2021/08/29 01:58:13;;;;;;;5.30;3.20;;;;;;;11.86;76.17;98765.67;111148;1202;60961;-23
2021/08/29 02:00:48;;;;;;;9.20;3.70;;;;;;;11.60;77.02;98757.95;111142;1196;76768;-23
2021/08/29 02:03:18;;;;;;;5.10;2.70;;;;;;;11.41;77.62;98752.69;111150;1198;76000;-23
2021/08/29 02:06:13;;;;;;;7.20;3.00;;;;;;;11.98;77.12;98748.40;111098;1200;73966;-23
2021/08/29 02:08:47;;;;;;;4.30;2.80;;;;;;;12.56;74.87;98751.96;111126;1202;60972;-23
2021/08/29 02:11:18;;;;;;;5.50;2.50;;;;;;;12.48;74.47;98756.40;111133;1195;60944;-23
2021/08/29 02:13:47;;;;;;;5.90;3.00;;;;;;;12.23;74.83;98760.27;111034;1203;74066;-23
2021/08/29 02:16:18;;;;;;;6.60;3.30;;;;;;;11.92;75.83;98759.52;111161;1200;75452;-21
2021/08/29 02:18:50;;;;;;;5.20;3.60;;;;;;;11.58;77.67;98760.89;111126;1202;72567;-21
2021/08/29 02:21:20;;;;;;;2.90;2.10;;;;;;;11.43;78.18;98761.73;111093;1200;61755;-21
2021/08/29 02:23:49;;;;;;;2.70;2.00;;;;;;;11.95;77.23;98754.09;111126;1202;60913;-21
2021/08/29 02:26:18;;;;;;;8.70;4.20;;;;;;;12.43;75.83;98745.86;111197;1200;73903;-21
2021/08/29 02:28:48;;;;;;;12.20;6.10;;;;;;;12.12;77.18;98739.83;111156;1202;75684;-21
2021/08/29 02:31:19;;;;;;;9.10;4.70;;;;;;;11.45;80.27;98738.94;111117;1200;73048;-21
2021/08/29 02:33:48;;;;;;;10.90;6.50;;;;;;;11.15;81.81;98733.06;111170;1202;61825;-21
2021/08/29 02:36:17;;;;;;;6.70;2.50;;;;;;;10.89;82.95;98729.80;111162;1203;61002;-21
2021/08/29 02:38:50;;;;;;;3.80;2.60;;;;;;;11.25;81.87;98721.77;111162;1200;73595;-21
2021/08/29 02:41:20;;;;;;;4.10;3.00;;;;;;;11.63;80.23;98718.05;111180;1202;73884;-21
2021/08/29 02:43:49;;;;;;;6.60;3.40;;;;;;;11.74;79.77;98721.38;111137;1205;72570;-21
2021/08/29 02:46:20;;;;;;;5.50;3.30;;;;;;;11.91;78.91;98724.13;111149;1202;61515;-21
2021/08/29 02:48:49;;;;;;;6.00;3.00;;;;;;;11.86;78.75;98724.84;111170;1196;61663;-21
2021/08/29 02:51:18;;;;;;;3.60;2.20;;;;;;;11.69;79.35;98726.32;111189;1202;75100;-21
2021/08/29 02:53:49;;;;;;;3.60;2.30;;;;;;;12.16;77.96;98728.35;111123;1201;75607;-21
2021/08/29 02:56:19;;;;;;;2.70;2.20;;;;;;;12.69;75.69;98726.22;111196;1201;71202;-21
2021/08/29 02:58:49;;;;;;;2.80;2.40;;;;;;;12.66;75.32;98727.90;111086;1204;61656;-21
2021/08/29 03:01:25;;;;;;;5.70;2.70;;;;;;;12.39;75.77;98727.94;111133;1200;60920;-22
2021/08/29 03:04:01;;;;;;;4.90;2.80;;;;;;;12.04;76.60;98727.05;111146;1202;75158;-21
2021/08/29 03:06:32;;;;;;;4.80;2.70;;;;;;;11.76;77.49;98731.97;111088;1202;74544;-21
2021/08/29 03:09:04;;;;;;;3.00;1.80;;;;;;;11.60;77.77;98733.06;111160;1196;73008;-21
2021/08/29 03:11:55;;;;;;;3.90;2.20;;;;;;;12.20;77.49;98726.94;111067;1200;61065;-22
2021/08/29 03:14:57;;;;;;;7.40;2.60;;;;;;;12.74;75.53;98720.04;111027;1203;60890;-21
2021/08/29 03:17:26;;;;;;;6.80;2.80;;;;;;;12.64;75.07;98715.46;111090;1205;73780;-21
2021/08/29 03:20:07;;;;;;;7.00;3.00;;;;;;;12.27;76.56;98713.59;111121;1195;74792;-21
2021/08/29 03:22:48;;;;;;;4.40;3.20;;;;;;;11.77;79.25;98713.80;111138;1196;73580;-21
2021/08/29 03:25:18;;;;;;;7.30;2.10;;;;;;;11.65;79.82;98717.98;111176;1202;63333;-21
2021/08/29 03:27:47;;;;;;;6.20;3.80;;;;;;;12.24;78.02;98712.16;111103;1200;60902;-21
2021/08/29 03:30:17;;;;;;;7.10;3.70;;;;;;;12.46;76.77;98704.63;111154;1202;72582;-21
2021/08/29 03:32:46;;;;;;;4.80;3.20;;;;;;;12.48;76.76;98702.80;111379;1202;75629;-21
2021/08/29 03:35:26;;;;;;;5.50;3.70;;;;;;;12.32;77.36;98698.81;111375;1202;73060;-21
2021/08/29 03:37:56;;;;;;;6.40;4.30;;;;;;;12.22;77.57;98698.06;111190;1204;60849;-21
2021/08/29 03:40:26;;;;;;;11.10;5.50;;;;;;;12.05;77.79;98705.02;111181;1200;60828;-21
2021/08/29 03:43:00;;;;;;;4.70;3.00;;;;;;;11.83;78.86;98702.13;111340;1201;75916;-22
2021/08/29 03:45:29;;;;;;;5.60;3.80;;;;;;;12.39;77.80;98704.98;111403;1201;73985;-21
2021/08/29 03:47:58;;;;;;;7.40;3.80;;;;;;;12.87;75.83;98708.05;111201;1201;72230;-22
2021/08/29 03:50:28;;;;;;;5.80;3.80;;;;;;;12.90;75.52;98711.63;111256;1200;60872;-23
2021/08/29 03:52:56;;;;;;;5.60;4.30;;;;;;;12.78;75.98;98710.73;111193;1202;60887;-21
2021/08/29 03:55:34;;;;;;;5.10;4.20;;;;;;;12.60;76.29;98713.95;111148;1196;75327;-22
2021/08/29 03:58:03;;;;;;;4.10;3.40;;;;;;;12.40;76.93;98723.21;111187;1204;74774;-21
2021/08/29 04:00:57;;;;;;;4.00;1.80;;;;;;;12.14;78.20;98721.73;109833;1221;599627;-22
2021/08/29 04:03:27;;;;;;;6.00;2.30;;;;;;;12.63;76.86;98723.95;110906;1208;61970;-23
2021/08/29 04:06:22;;;;;;;3.80;2.20;;;;;;;13.17;74.82;98720.95;110631;1208;60897;-23
2021/08/29 04:08:55;;;;;;;3.70;2.60;;;;;;;13.18;74.55;98720.66;110798;1202;72560;-23
2021/08/29 04:11:29;;;;;;;6.90;2.30;;;;;;;12.87;75.29;98722.38;110808;1200;75565;-23
2021/08/29 04:13:58;;;;;;;17.30;4.80;;;;;;;12.57;76.58;98718.09;110685;1209;72525;-23
2021/08/29 04:16:30;;;;;;;34.80;9.40;;;;;;;11.87;79.98;98712.75;110804;1208;63359;-23
2021/08/29 04:19:06;;;;;;;16.90;5.40;;;;;;;12.34;78.78;98705.41;110982;1200;60795;-23
2021/08/29 04:21:35;;;;;;;12.60;5.20;;;;;;;12.93;76.26;98706.66;110977;1203;71062;-23
2021/08/29 04:24:05;;;;;;;16.00;6.80;;;;;;;12.88;76.69;98701.78;111090;1205;75748;-23
2021/08/29 04:26:46;;;;;;;11.60;5.20;;;;;;;12.66;77.92;98699.31;110906;1206;73088;-25
2021/08/29 04:29:15;;;;;;;7.70;4.30;;;;;;;12.48;78.04;98693.14;110874;1206;60963;-23
2021/08/29 04:31:47;;;;;;;3.70;2.20;;;;;;;12.40;78.83;98693.77;111100;1205;60883;-23
2021/08/29 04:34:15;;;;;;;7.90;3.40;;;;;;;12.77;78.10;98695.85;111019;1205;71721;-22
2021/08/29 04:36:53;;;;;;;6.90;3.70;;;;;;;13.49;75.36;98697.80;110953;1203;74668;-23
2021/08/29 04:39:44;;;;;;;16.20;10.10;;;;;;;13.64;74.78;98710.48;111091;1205;72708;-23
2021/08/29 04:42:14;;;;;;;39.90;24.00;;;;;;;13.57;75.11;98708.02;111051;1205;60964;-22
2021/08/29 04:44:43;;;;;;;46.00;28.20;;;;;;;13.29;75.41;98705.08;110964;1203;60884;-23
2021/08/29 04:47:13;;;;;;;45.30;25.10;;;;;;;13.14;76.65;98699.73;110919;1205;75648;-23
2021/08/29 04:49:44;;;;;;;52.10;31.80;;;;;;;13.33;76.34;98695.38;110880;1199;75544;-23
2021/08/29 04:52:21;;;;;;;30.50;21.00;;;;;;;13.65;75.02;98691.71;111035;1208;72581;-22
2021/08/29 04:54:51;;;;;;;20.80;11.50;;;;;;;13.67;74.96;98686.79;110992;1206;61735;-23
2021/08/29 04:57:23;;;;;;;19.80;12.40;;;;;;;13.39;76.13;98679.77;111028;1206;60874;-23
2021/08/29 04:59:52;;;;;;;17.70;9.10;;;;;;;13.00;77.98;98678.44;110916;1203;74658;-23
2021/08/29 05:02:21;;;;;;;11.20;5.10;;;;;;;13.13;78.15;98684.01;110974;1208;75531;-23
2021/08/29 05:04:50;;;;;;;10.90;6.70;;;;;;;13.84;75.83;98689.63;110938;1207;73036;-23
2021/08/29 05:07:20;;;;;;;11.60;7.30;;;;;;;14.35;74.16;98690.03;110928;1208;61041;-23
2021/08/29 05:09:49;;;;;;;8.60;6.50;;;;;;;14.53;73.31;98695.23;110969;1206;60884;-22
2021/08/29 05:12:18;;;;;;;10.50;5.90;;;;;;;14.50;72.87;98706.13;110833;1209;73019;-23
2021/08/29 05:14:47;;;;;;;8.60;6.00;;;;;;;14.28;73.51;98720.29;110799;1199;74028;-23
2021/08/29 05:17:16;;;;;;;8.10;5.70;;;;;;;14.08;74.37;98722.06;110828;1207;73248;-23
2021/08/29 05:19:50;;;;;;;5.50;3.20;;;;;;;14.01;74.76;98719.70;110722;1207;61365;-23
2021/08/29 05:22:48;;;;;;;8.80;5.30;;;;;;;14.71;73.49;98710.95;110776;1208;60839;-23
2021/08/29 05:25:54;;;;;;;8.10;4.80;;;;;;;15.11;71.27;98708.23;110779;1207;73206;-22
2021/08/29 05:28:23;;;;;;;4.40;3.30;;;;;;;15.02;71.57;98709.19;110890;1207;75632;-23
2021/08/29 05:30:52;;;;;;;3.90;3.10;;;;;;;14.75;72.18;98703.92;110945;1206;73319;-23
2021/08/29 05:33:22;;;;;;;4.00;3.30;;;;;;;14.29;73.53;98699.70;110980;1207;62041;-23
2021/08/29 05:35:52;;;;;;;4.30;3.90;;;;;;;14.20;74.31;98699.54;110882;1207;61971;-23
2021/08/29 05:38:21;;;;;;;4.10;2.10;;;;;;;14.15;75.28;98699.24;110967;1208;73381;-23
2021/08/29 05:41:16;;;;;;;2.90;2.60;;;;;;;14.86;73.01;98703.51;110869;1207;74704;-23
2021/08/29 05:43:45;;;;;;;7.40;3.00;;;;;;;15.48;71.30;98704.47;110880;1206;74104;-23
2021/08/29 05:46:21;;;;;;;5.00;3.50;;;;;;;15.53;70.37;98703.08;110936;1207;60890;-23
2021/08/29 05:48:50;;;;;;;11.10;6.10;;;;;;;15.34;70.98;98703.34;110972;1207;60886;-23
2021/08/29 05:51:20;;;;;;;14.20;8.40;;;;;;;14.87;72.10;98701.30;110881;1208;73350;-23
2021/08/29 05:53:49;;;;;;;9.30;6.10;;;;;;;14.73;73.26;98701.14;111056;1209;74184;-23
2021/08/29 05:56:18;;;;;;;5.00;2.80;;;;;;;14.60;73.93;98695.14;110889;1203;73378;-23
2021/08/29 05:58:46;;;;;;;4.30;2.40;;;;;;;14.76;73.39;98698.91;110692;1208;60871;-23
2021/08/29 06:01:16;;;;;;;4.20;3.30;;;;;;;15.20;72.03;98694.41;110707;1208;60981;-22
2021/08/29 06:03:47;;;;;;;5.90;3.30;;;;;;;14.90;72.62;98689.27;110937;1208;72943;-22
2021/08/29 06:06:36;;;;;;;5.10;3.50;;;;;;;14.54;74.26;98687.95;110837;1208;74652;-22
2021/08/29 06:09:05;;;;;;;4.90;2.90;;;;;;;14.80;73.91;98693.98;110672;1206;72867;-22
2021/08/29 06:11:34;;;;;;;6.40;3.00;;;;;;;14.89;74.50;98699.73;110821;1207;61295;-22
2021/08/29 06:14:05;;;;;;;4.50;2.20;;;;;;;14.74;74.02;98702.80;110653;1208;61604;-22
2021/08/29 06:16:37;;;;;;;5.00;2.60;;;;;;;15.17;72.64;98710.56;110612;1207;74376;-22
2021/08/29 06:19:12;;;;;;;4.40;2.90;;;;;;;15.91;71.31;98718.46;111050;1204;74167;-22
2021/08/29 06:21:41;;;;;;;5.00;2.70;;;;;;;16.09;70.52;98732.09;111021;1205;74186;-22
2021/08/29 06:24:19;;;;;;;5.60;2.90;;;;;;;15.77;71.52;98740.40;111077;1204;61481;-22
2021/08/29 06:27:06;;;;;;;6.20;3.50;;;;;;;15.44;72.54;98737.27;110980;1205;60838;-22
2021/08/29 06:29:55;;;;;;;11.90;3.80;;;;;;;15.28;72.84;98732.35;110669;1205;73524;-23
2021/08/29 06:32:30;;;;;;;3.40;2.20;;;;;;;15.28;72.90;98734.81;110881;1206;74365;-22
2021/08/29 06:35:07;;;;;;;5.50;3.20;;;;;;;15.92;73.27;98732.25;111100;1204;75513;-22
2021/08/29 06:37:44;;;;;;;4.30;3.10;;;;;;;16.56;70.63;98721.66;111115;1204;60880;-22
2021/08/29 06:40:13;;;;;;;6.40;3.50;;;;;;;16.54;68.82;98712.97;111077;1205;61655;-23
2021/08/29 06:42:42;;;;;;;6.40;4.30;;;;;;;16.28;70.34;98704.27;110859;1205;73035;-22
2021/08/29 06:45:43;;;;;;;7.80;4.60;;;;;;;15.87;72.46;98706.17;110682;1205;74663;-22
2021/08/29 06:48:42;;;;;;;8.20;4.00;;;;;;;15.58;73.54;98702.94;110590;1206;72849;-22
2021/08/29 06:51:30;;;;;;;3.60;2.30;;;;;;;15.18;75.89;98695.77;111028;1204;63824;-22
2021/08/29 06:54:36;;;;;;;4.80;3.20;;;;;;;15.30;76.29;98681.71;111148;1204;60884;-22
2021/08/29 06:57:27;;;;;;;4.50;2.80;;;;;;;15.53;75.72;98681.45;111066;1204;72481;-21
2021/08/29 06:59:55;;;;;;;3.80;2.80;;;;;;;15.56;74.82;98680.45;110976;1204;75780;-21
2021/08/29 07:02:24;;;;;;;5.10;3.10;;;;;;;14.98;77.32;98672.34;111148;1204;73484;-21
2021/08/29 07:13:46;;;;;;;6.40;4.10;;;;;;;15.27;77.31;98640.46;111149;1203;73196;-21
2021/08/29 07:16:23;;;;;;;7.40;5.10;;;;;;;15.32;77.42;98641.92;111117;1202;74687;-21
2021/08/29 07:18:53;;;;;;;7.10;5.60;;;;;;;15.31;76.53;98637.23;111169;1203;72971;-21
2021/08/29 07:21:25;;;;;;;7.70;4.10;;;;;;;15.24;78.47;98639.79;111121;1202;62232;-21
2021/08/29 07:24:13;;;;;;;7.50;4.50;;;;;;;15.80;76.14;98642.48;111174;1203;60862;-22
2021/08/29 07:27:00;;;;;;;6.70;5.10;;;;;;;16.32;74.46;98642.35;111130;1202;73450;-21
2021/08/29 07:29:49;;;;;;;5.90;4.20;;;;;;;16.27;74.63;98638.93;111176;1203;74761;-21
2021/08/29 07:32:18;;;;;;;5.40;4.20;;;;;;;16.00;75.50;98640.09;111188;1202;72572;-22
2021/08/29 07:34:47;;;;;;;5.00;3.80;;;;;;;15.72;76.74;98638.11;111176;1200;60942;-23
2021/08/29 07:37:35;;;;;;;7.80;3.50;;;;;;;15.34;76.90;98641.98;111138;1202;60881;-21
2021/08/29 07:40:04;;;;;;;5.00;3.50;;;;;;;15.80;75.54;98642.15;111188;1202;73400;-21
2021/08/29 07:42:33;;;;;;;9.80;3.20;;;;;;;16.12;75.00;98649.63;111122;1198;76140;-21
2021/08/29 07:45:03;;;;;;;3.70;3.30;;;;;;;16.06;74.78;98647.49;111139;1204;73989;-21
2021/08/29 07:47:32;;;;;;;4.60;3.20;;;;;;;15.70;76.05;98635.84;111132;1200;60926;-22
2021/08/29 07:50:01;;;;;;;3.40;2.40;;;;;;;15.12;78.55;98632.42;111187;1203;61246;-21
2021/08/29 07:52:30;;;;;;;3.90;3.00;;;;;;;15.56;77.97;98624.27;111158;1200;74306;-21
2021/08/29 07:55:19;;;;;;;3.60;3.00;;;;;;;15.37;78.31;98623.48;111109;1203;74751;-21
2021/08/29 07:58:18;;;;;;;6.60;3.40;;;;;;;15.61;77.06;98621.06;111137;1202;73091;-21
2021/08/29 08:00:48;;;;;;;4.80;3.60;;;;;;;15.30;78.61;98627.85;111108;1200;60891;-21
2021/08/29 08:03:41;;;;;;;4.70;3.30;;;;;;;15.18;78.81;98625.34;110960;1199;60942;-21
2021/08/29 08:06:11;;;;;;;3.60;2.90;;;;;;;15.45;78.80;98619.29;111142;1203;72661;-21
2021/08/29 08:08:40;;;;;;;4.60;3.00;;;;;;;15.69;77.87;98617.41;111145;1202;75367;-21
2021/08/29 08:11:28;;;;;;;4.30;3.60;;;;;;;15.86;76.75;98629.77;111085;1204;73104;-21
2021/08/29 08:13:57;;;;;;;4.80;4.30;;;;;;;15.68;76.91;98632.73;111087;1203;60810;-22
2021/08/29 08:16:26;;;;;;;5.80;4.80;;;;;;;15.41;77.81;98631.95;111154;1204;60862;-21
2021/08/29 08:18:56;;;;;;;6.90;3.10;;;;;;;15.14;79.30;98638.55;111077;1203;73284;-21
2021/08/29 08:21:25;;;;;;;3.90;3.00;;;;;;;15.68;78.49;98639.23;111124;1202;75582;-21
2021/08/29 08:24:24;;;;;;;4.00;3.20;;;;;;;15.99;76.88;98653.23;110998;1203;73284;-22
2021/08/29 08:27:11;;;;;;;3.50;2.80;;;;;;;16.15;76.57;98671.92;111102;1203;60866;-23
2021/08/29 08:29:59;;;;;;;8.10;5.30;;;;;;;15.97;76.86;98677.36;111114;1203;60890;-24
2021/08/29 08:32:55;;;;;;;5.80;5.20;;;;;;;15.68;77.56;98669.86;111005;1202;74506;-24
2021/08/29 08:35:45;;;;;;;5.80;4.70;;;;;;;15.42;78.85;98669.84;111071;1203;75303;-23
2021/08/29 08:38:49;;;;;;;4.30;3.00;;;;;;;14.80;81.54;98636.00;111149;1202;73095;-23
2021/08/29 08:41:30;;;;;;;3.90;3.10;;;;;;;14.83;82.00;98625.34;111078;1200;60996;-23
2021/08/29 08:44:17;;;;;;;3.40;3.10;;;;;;;15.23;80.68;98642.77;111088;1203;60788;-22
2021/08/29 08:47:06;;;;;;;4.90;3.90;;;;;;;14.53;82.90;98624.27;111133;1203;75211;-22
2021/08/29 08:49:56;;;;;;;3.90;3.00;;;;;;;14.28;84.30;98614.62;110960;1203;74782;-23
2021/08/29 08:52:43;;;;;;;5.40;2.90;;;;;;;15.02;81.30;98624.98;111081;1204;73159;-22
2021/08/29 08:55:30;;;;;;;6.50;4.60;;;;;;;14.54;82.69;98619.16;111062;1202;60868;-23
2021/08/29 08:58:22;;;;;;;10.30;9.10;;;;;;;14.56;82.87;98627.84;111123;1202;60918;-22
2021/08/29 09:01:14;;;;;;;5.90;4.30;;;;;;;14.30;84.52;98617.91;110987;1204;75109;-22
2021/08/29 09:04:05;;;;;;;5.20;3.30;;;;;;;14.48;83.96;98614.27;111091;1203;76080;-22
2021/08/29 09:06:40;;;;;;;4.80;3.20;;;;;;;14.64;83.65;98602.50;111048;1203;74029;-23
2021/08/29 09:09:10;;;;;;;5.40;4.10;;;;;;;14.79;82.09;98596.94;111099;1202;61869;-21
2021/08/29 09:11:52;;;;;;;6.30;5.10;;;;;;;14.35;84.73;98603.27;111083;1203;60985;-21
2021/08/29 09:14:21;;;;;;;6.70;4.10;;;;;;;14.62;83.64;98618.95;111129;1202;75151;-22
2021/08/29 09:16:56;;;;;;;5.00;2.20;;;;;;;15.06;81.50;98660.51;111151;1203;74385;-21
2021/08/29 09:19:29;;;;;;;6.80;2.50;;;;;;;15.51;80.33;98671.14;111125;1202;74004;-21
2021/08/29 09:21:58;;;;;;;4.90;4.00;;;;;;;15.31;80.78;98623.29;111148;1203;60880;-21
2021/08/29 09:24:29;;;;;;;7.00;4.40;;;;;;;14.52;84.55;98600.82;111077;1203;60984;-21
2021/08/29 09:27:21;;;;;;;5.10;4.00;;;;;;;14.74;83.52;98609.50;111139;1202;74290;-21
2021/08/29 09:30:14;;;;;;;5.30;3.30;;;;;;;14.39;85.63;98606.16;110960;1203;74660;-21
2021/08/29 09:32:50;;;;;;;7.50;3.90;;;;;;;14.85;83.59;98605.90;110940;1198;72552;-21
2021/08/29 09:35:22;;;;;;;5.60;3.70;;;;;;;15.11;82.82;98619.73;111124;1204;61790;-21
2021/08/29 09:38:11;;;;;;;7.40;5.00;;;;;;;14.70;83.93;98589.18;111051;1203;60884;-21
2021/08/29 09:41:00;;;;;;;4.50;3.40;;;;;;;13.94;88.09;98508.00;111049;1203;75143;-21
2021/08/29 09:43:43;;;;;;;5.40;3.70;;;;;;;14.09;87.43;98484.09;110974;1200;75676;-21
2021/08/29 09:46:12;;;;;;;5.50;3.60;;;;;;;14.25;86.88;98508.14;111084;1195;73993;-21
2021/08/29 09:49:00;;;;;;;4.60;3.00;;;;;;;14.28;86.63;98519.42;111076;1202;61141;-21
2021/08/29 09:51:46;;;;;;;4.40;2.90;;;;;;;14.61;85.85;98542.20;111137;1202;60906;-22
2021/08/29 09:54:54;;;;;;;4.20;2.50;;;;;;;15.31;83.32;98545.73;110756;1207;76061;-21
2021/08/29 09:57:43;;;;;;;4.10;3.60;;;;;;;15.44;82.30;98548.96;110755;1206;75618;-21
2021/08/29 10:00:22;;;;;;;4.80;3.60;;;;;;;15.20;83.08;98562.17;110938;1202;73118;-21
2021/08/29 10:03:05;;;;;;;4.50;2.30;;;;;;;15.37;82.32;98569.45;111151;1202;60882;-21
2021/08/29 10:06:16;;;;;;;3.80;2.30;;;;;;;15.80;80.54;98597.63;111059;1202;61155;-21
2021/08/29 10:08:50;;;;;;;2.90;2.10;;;;;;;16.51;78.37;98637.49;111147;1200;72788;-21
2021/08/29 10:11:25;;;;;;;5.90;3.00;;;;;;;16.33;77.18;98621.06;111100;1204;74716;-21
2021/08/29 10:13:55;;;;;;;4.60;3.30;;;;;;;15.84;79.93;98605.96;111093;1204;70829;-21
2021/08/29 10:16:26;;;;;;;3.40;1.90;;;;;;;15.37;81.62;98623.67;111105;1204;63154;-21
2021/08/29 10:19:14;;;;;;;3.60;2.70;;;;;;;16.22;79.49;98642.77;111012;1196;60904;-21
2021/08/29 10:22:03;;;;;;;4.00;2.60;;;;;;;16.69;77.72;98645.63;111054;1204;75023;-21
2021/08/29 10:24:34;;;;;;;4.10;3.40;;;;;;;16.13;78.85;98624.30;111098;1204;73414;-20
2021/08/29 10:27:06;;;;;;;4.70;3.40;;;;;;;14.92;83.37;98613.02;111062;1200;72983;-21
2021/08/29 10:30:12;;;;;;;7.40;3.20;;;;;;;14.58;85.75;98601.08;111087;1203;62103;-20
2021/08/29 10:33:02;;;;;;;4.20;3.40;;;;;;;14.62;85.71;98577.45;111062;1203;60868;-21
2021/08/29 10:35:45;;;;;;;5.20;4.00;;;;;;;14.53;86.55;98557.75;111136;1200;75074;-21
2021/08/29 10:38:36;;;;;;;5.10;3.40;;;;;;;14.35;87.27;98549.45;111159;1202;74843;-21
2021/08/29 10:41:23;;;;;;;3.60;3.00;;;;;;;14.30;87.76;98557.33;111029;1202;73112;-21
2021/08/29 10:43:56;;;;;;;3.60;2.60;;;;;;;15.13;84.91;98563.98;111137;1203;61745;-21
2021/08/29 10:46:44;;;;;;;3.40;2.70;;;;;;;15.29;84.27;98564.70;111107;1203;60855;-21
2021/08/29 10:49:33;;;;;;;3.30;2.70;;;;;;;14.93;84.85;98574.54;111110;1203;74152;-21
2021/08/29 10:52:04;;;;;;;4.30;3.30;;;;;;;14.87;85.52;98567.30;111034;1202;74631;-21
2021/08/29 10:54:33;;;;;;;5.00;4.00;;;;;;;14.68;86.63;98545.13;111109;1203;73087;-21
2021/08/29 10:57:34;;;;;;;3.20;2.90;;;;;;;14.93;85.86;98525.17;111144;1203;61534;-21
2021/08/29 11:00:24;;;;;;;4.00;2.80;;;;;;;14.89;85.94;98510.83;111095;1195;62286;-21
2021/08/29 11:02:54;;;;;;;6.30;3.20;;;;;;;14.77;86.31;98507.70;111150;1203;75173;-21
2021/08/29 11:05:42;;;;;;;5.80;3.20;;;;;;;14.94;85.77;98505.74;111102;1202;75831;-21
2021/08/29 11:08:30;;;;;;;7.80;4.20;;;;;;;14.71;85.82;98506.56;111108;1203;73014;-21
2021/08/29 11:11:01;;;;;;;5.10;2.70;;;;;;;14.86;86.31;98499.77;111166;1202;61829;-22
2021/08/29 11:13:35;;;;;;;4.00;3.00;;;;;;;15.19;85.64;98502.46;111127;1202;60839;-21
2021/08/29 11:16:13;;;;;;;6.10;4.50;;;;;;;15.07;84.43;98499.44;111129;1202;75149;-21
2021/08/29 11:19:21;;;;;;;3.60;2.90;;;;;;;14.87;85.82;98488.61;111107;1202;74698;-22
2021/08/29 11:22:08;;;;;;;6.00;3.10;;;;;;;14.84;85.58;98480.60;111146;1202;73104;-21
2021/08/29 11:25:10;;;;;;;4.60;3.00;;;;;;;14.75;85.77;98470.46;110987;1203;61116;-21
2021/08/29 11:27:48;;;;;;;4.10;3.50;;;;;;;14.67;86.10;98466.89;111158;1202;61931;-22
2021/08/29 11:30:36;;;;;;;5.50;2.30;;;;;;;14.76;86.39;98463.76;111116;1195;75337;-21
2021/08/29 11:33:23;;;;;;;3.40;2.70;;;;;;;14.90;85.29;98463.09;111115;1202;74048;-22
2021/08/29 11:35:58;;;;;;;4.30;3.50;;;;;;;14.77;85.22;98461.20;111073;1203;73920;-22
2021/08/29 11:38:57;;;;;;;5.50;3.10;;;;;;;14.97;85.20;98462.63;111124;1203;62495;-21
2021/08/29 11:41:26;;;;;;;3.90;2.50;;;;;;;14.85;85.01;98453.40;111141;1201;61637;-21
2021/08/29 11:43:57;;;;;;;6.00;3.10;;;;;;;15.14;83.75;98455.81;111130;1196;74475;-21
2021/08/29 11:46:39;;;;;;;5.50;3.20;;;;;;;14.71;85.69;98450.30;111143;1203;75544;-22
2021/08/29 11:49:18;;;;;;;4.70;2.70;;;;;;;14.30;87.07;98458.69;111054;1203;73106;-22
2021/08/29 11:51:54;;;;;;;5.20;3.10;;;;;;;14.70;85.81;98456.92;111053;1203;63807;-22
2021/08/29 11:54:33;;;;;;;6.20;2.60;;;;;;;15.02;84.39;98455.52;111141;1202;60890;-22
2021/08/29 11:57:04;;;;;;;5.50;2.80;;;;;;;15.13;83.65;98464.64;111192;1203;75114;-22
2021/08/29 11:59:33;;;;;;;4.00;3.00;;;;;;;15.41;82.06;98474.38;111139;1202;74810;-22
2021/08/29 12:02:15;;;;;;;3.30;2.50;;;;;;;14.97;84.58;98468.91;111049;1197;72944;-22
2021/08/29 12:04:55;;;;;;;6.40;3.10;;;;;;;14.81;85.12;98455.73;111072;1203;60892;-22
2021/08/29 12:08:06;;;;;;;9.70;4.30;;;;;;;14.95;84.31;98457.90;111045;1198;61025;-22
2021/08/29 12:10:53;;;;;;;4.00;2.60;;;;;;;14.61;85.38;98456.61;111006;1197;74294;-22
2021/08/29 12:13:42;;;;;;;7.80;3.20;;;;;;;15.12;84.14;98460.92;111071;1198;75424;-22
2021/08/29 12:16:30;;;;;;;7.70;3.50;;;;;;;15.48;82.17;98451.58;111078;1202;73094;-22
2021/08/29 12:19:13;;;;;;;6.60;3.70;;;;;;;14.93;84.14;98452.13;111149;1202;61673;-22